sensor_id;sensor_type;location;lat;lon;timestamp;pressure;altitude;pressure_sealevel;temperature;humidity
11099;BME280;12223;42.650;23.364;2024-02-23T00:00:03;94541.47;;;4.48;70.45
11099;BME280;12223;42.650;23.364;2024-02-23T00:02:31;94543.56;;;4.57;70.80
11099;BME280;12223;42.650;23.364;2024-02-23T00:04:56;94554.69;;;4.45;70.25
11099;BME280;12223;42.650;23.364;2024-02-23T00:07:22;94529.63;;;4.28;71.82
11099;BME280;12223;42.650;23.364;2024-02-23T00:09:47;94535.69;;;4.34;71.66
11099;BME280;12223;42.650;23.364;2024-02-23T00:12:13;94534.56;;;4.73;68.74
11099;BME280;12223;42.650;23.364;2024-02-23T00:14:39;94531.81;;;4.75;69.96
11099;BME280;12223;42.650;23.364;2024-02-23T00:17:05;94541.63;;;4.78;68.74
11099;BME280;12223;42.650;23.364;2024-02-23T00:19:31;94542.09;;;4.43;69.55
11099;BME280;12223;42.650;23.364;2024-02-23T00:21:56;94557.25;;;4.45;70.99
11099;BME280;12223;42.650;23.364;2024-02-23T00:24:24;94543.03;;;4.49;70.38
11099;BME280;12223;42.650;23.364;2024-02-23T00:26:49;94547.81;;;4.70;69.35
11099;BME280;12223;42.650;23.364;2024-02-23T00:29:16;94546.75;;;4.53;70.73
11099;BME280;12223;42.650;23.364;2024-02-23T00:31:42;94538.97;;;4.66;70.14
11099;BME280;12223;42.650;23.364;2024-02-23T00:34:08;94537.09;;;4.80;68.86
11099;BME280;12223;42.650;23.364;2024-02-23T00:36:38;94531.38;;;4.78;69.69
11099;BME280;12223;42.650;23.364;2024-02-23T00:39:03;94535.72;;;4.77;68.74
11099;BME280;12223;42.650;23.364;2024-02-23T00:41:30;94535.94;;;4.76;70.35
11099;BME280;12223;42.650;23.364;2024-02-23T00:43:56;94525.59;;;4.64;70.38
11099;BME280;12223;42.650;23.364;2024-02-23T00:46:21;94513.44;;;4.59;70.46
11099;BME280;12223;42.650;23.364;2024-02-23T00:48:46;94512.22;;;4.62;70.34
11099;BME280;12223;42.650;23.364;2024-02-23T00:51:12;94515.47;;;4.51;69.73
11099;BME280;12223;42.650;23.364;2024-02-23T00:53:37;94520.34;;;4.34;70.29
11099;BME280;12223;42.650;23.364;2024-02-23T00:56:03;94496.91;;;4.06;70.49
11099;BME280;12223;42.650;23.364;2024-02-23T00:58:28;94508.53;;;4.02;70.75
11099;BME280;12223;42.650;23.364;2024-02-23T01:00:55;94511.25;;;4.07;72.40
11099;BME280;12223;42.650;23.364;2024-02-23T01:03:20;94517.78;;;4.34;71.24
11099;BME280;12223;42.650;23.364;2024-02-23T01:05:46;94500.66;;;4.35;69.48
11099;BME280;12223;42.650;23.364;2024-02-23T01:08:11;94499.34;;;4.50;69.21
11099;BME280;12223;42.650;23.364;2024-02-23T01:10:36;94509.03;;;4.42;69.20
11099;BME280;12223;42.650;23.364;2024-02-23T01:13:02;94519.06;;;4.43;69.39
11099;BME280;12223;42.650;23.364;2024-02-23T01:15:27;94498.66;;;4.37;69.98
11099;BME280;12223;42.650;23.364;2024-02-23T01:17:52;94488.72;;;4.47;69.54
11099;BME280;12223;42.650;23.364;2024-02-23T01:20:18;94489.44;;;4.60;67.28
11099;BME280;12223;42.650;23.364;2024-02-23T01:22:43;94501.69;;;4.52;69.81
11099;BME280;12223;42.650;23.364;2024-02-23T01:25:09;94509.94;;;4.29;70.13
11099;BME280;12223;42.650;23.364;2024-02-23T01:27:34;94507.75;;;4.33;69.40
11099;BME280;12223;42.650;23.364;2024-02-23T01:30:00;94501.38;;;4.42;69.14
11099;BME280;12223;42.650;23.364;2024-02-23T01:32:25;94489.81;;;4.57;68.20
11099;BME280;12223;42.650;23.364;2024-02-23T01:34:52;94485.09;;;4.61;68.30
11099;BME280;12223;42.650;23.364;2024-02-23T01:37:17;94489.78;;;4.39;68.92
11099;BME280;12223;42.650;23.364;2024-02-23T01:39:43;94486.13;;;4.53;69.36
11099;BME280;12223;42.650;23.364;2024-02-23T01:42:08;94476.38;;;4.44;68.99
11099;BME280;12223;42.650;23.364;2024-02-23T01:44:34;94464.03;;;4.59;69.22
11099;BME280;12223;42.650;23.364;2024-02-23T01:46:59;94483.34;;;4.80;66.62
11099;BME280;12223;42.650;23.364;2024-02-23T01:49:25;94497.56;;;4.51;68.58
11099;BME280;12223;42.650;23.364;2024-02-23T01:51:56;94468.13;;;4.42;69.76
11099;BME280;12223;42.650;23.364;2024-02-23T01:54:22;94468.53;;;4.63;66.54
11099;BME280;12223;42.650;23.364;2024-02-23T01:56:47;94481.28;;;4.45;68.34
11099;BME280;12223;42.650;23.364;2024-02-23T01:59:13;94479.38;;;4.59;69.63
11099;BME280;12223;42.650;23.364;2024-02-23T02:01:39;94462.84;;;4.37;68.24
11099;BME280;12223;42.650;23.364;2024-02-23T02:04:07;94450.66;;;4.57;68.02
11099;BME280;12223;42.650;23.364;2024-02-23T02:06:33;94440.91;;;4.47;67.45
11099;BME280;12223;42.650;23.364;2024-02-23T02:08:58;94449.59;;;4.21;70.24
11099;BME280;12223;42.650;23.364;2024-02-23T02:11:24;94457.78;;;4.30;69.33
11099;BME280;12223;42.650;23.364;2024-02-23T02:13:49;94454.19;;;4.38;70.49
11099;BME280;12223;42.650;23.364;2024-02-23T02:16:15;94452.22;;;4.40;69.84
11099;BME280;12223;42.650;23.364;2024-02-23T02:18:40;94460.91;;;4.32;69.26
11099;BME280;12223;42.650;23.364;2024-02-23T02:21:06;94464.41;;;4.38;69.81
11099;BME280;12223;42.650;23.364;2024-02-23T02:23:31;94449.38;;;4.48;68.38
11099;BME280;12223;42.650;23.364;2024-02-23T02:25:58;94455.41;;;4.35;68.73
11099;BME280;12223;42.650;23.364;2024-02-23T02:28:24;94455.75;;;4.39;69.59
11099;BME280;12223;42.650;23.364;2024-02-23T02:30:51;94457.16;;;4.35;70.02
11099;BME280;12223;42.650;23.364;2024-02-23T02:33:18;94455.59;;;4.34;70.65
11099;BME280;12223;42.650;23.364;2024-02-23T02:35:43;94466.00;;;4.39;68.85
11099;BME280;12223;42.650;23.364;2024-02-23T02:38:11;94456.84;;;4.49;69.76
11099;BME280;12223;42.650;23.364;2024-02-23T02:40:37;94460.97;;;4.25;69.59
11099;BME280;12223;42.650;23.364;2024-02-23T02:43:03;94464.47;;;4.06;70.95
11099;BME280;12223;42.650;23.364;2024-02-23T02:45:28;94467.34;;;4.16;70.75
11099;BME280;12223;42.650;23.364;2024-02-23T02:47:54;94469.22;;;4.27;70.72
11099;BME280;12223;42.650;23.364;2024-02-23T02:50:19;94471.94;;;4.33;70.53
11099;BME280;12223;42.650;23.364;2024-02-23T02:52:45;94465.91;;;4.20;70.87
11099;BME280;12223;42.650;23.364;2024-02-23T02:55:10;94459.03;;;4.46;69.78
11099;BME280;12223;42.650;23.364;2024-02-23T02:57:35;94457.97;;;4.35;68.94
11099;BME280;12223;42.650;23.364;2024-02-23T03:00:04;94456.53;;;4.14;69.95
11099;BME280;12223;42.650;23.364;2024-02-23T03:02:33;94469.66;;;4.24;70.24
11099;BME280;12223;42.650;23.364;2024-02-23T03:05:00;94464.41;;;4.38;69.93
11099;BME280;12223;42.650;23.364;2024-02-23T03:07:25;94448.28;;;4.12;70.67
11099;BME280;12223;42.650;23.364;2024-02-23T03:09:50;94447.47;;;4.18;69.42
11099;BME280;12223;42.650;23.364;2024-02-23T03:12:16;94459.72;;;4.35;69.29
11099;BME280;12223;42.650;23.364;2024-02-23T03:14:43;94466.66;;;4.03;69.27
11099;BME280;12223;42.650;23.364;2024-02-23T03:17:09;94460.00;;;3.95;70.11
11099;BME280;12223;42.650;23.364;2024-02-23T03:19:37;94475.28;;;4.08;71.03
11099;BME280;12223;42.650;23.364;2024-02-23T03:22:03;94471.59;;;3.98;71.38
11099;BME280;12223;42.650;23.364;2024-02-23T03:24:29;94470.22;;;4.26;69.51
11099;BME280;12223;42.650;23.364;2024-02-23T03:26:55;94466.66;;;4.27;70.32
11099;BME280;12223;42.650;23.364;2024-02-23T03:29:21;94476.84;;;4.34;70.81
11099;BME280;12223;42.650;23.364;2024-02-23T03:31:50;94458.56;;;4.31;70.67
11099;BME280;12223;42.650;23.364;2024-02-23T03:34:15;94459.25;;;4.44;69.72
11099;BME280;12223;42.650;23.364;2024-02-23T03:36:40;94464.84;;;4.35;70.17
11099;BME280;12223;42.650;23.364;2024-02-23T03:39:06;94467.56;;;4.40;71.17
11099;BME280;12223;42.650;23.364;2024-02-23T03:41:32;94478.72;;;4.45;69.60
11099;BME280;12223;42.650;23.364;2024-02-23T03:43:57;94460.88;;;4.39;69.04
11099;BME280;12223;42.650;23.364;2024-02-23T03:46:24;94459.16;;;4.51;68.77
11099;BME280;12223;42.650;23.364;2024-02-23T03:48:49;94477.09;;;4.51;69.11
11099;BME280;12223;42.650;23.364;2024-02-23T03:51:14;94469.34;;;4.57;69.54
11099;BME280;12223;42.650;23.364;2024-02-23T03:53:40;94468.31;;;4.65;69.12
11099;BME280;12223;42.650;23.364;2024-02-23T03:56:06;94470.88;;;4.65;69.59
11099;BME280;12223;42.650;23.364;2024-02-23T03:58:31;94472.38;;;4.30;69.43
11099;BME280;12223;42.650;23.364;2024-02-23T04:00:56;94472.91;;;4.32;69.98
11099;BME280;12223;42.650;23.364;2024-02-23T04:03:22;94468.13;;;4.42;69.66
11099;BME280;12223;42.650;23.364;2024-02-23T04:05:47;94464.84;;;4.35;70.53
11099;BME280;12223;42.650;23.364;2024-02-23T04:08:12;94468.34;;;4.40;70.47
11099;BME280;12223;42.650;23.364;2024-02-23T04:10:38;94465.25;;;4.32;69.66
11099;BME280;12223;42.650;23.364;2024-02-23T04:13:04;94477.31;;;4.24;70.03
11099;BME280;12223;42.650;23.364;2024-02-23T04:15:30;94484.13;;;4.31;71.20
11099;BME280;12223;42.650;23.364;2024-02-23T04:17:55;94494.22;;;4.25;70.21
11099;BME280;12223;42.650;23.364;2024-02-23T04:20:21;94471.69;;;3.84;70.37
11099;BME280;12223;42.650;23.364;2024-02-23T04:22:46;94480.53;;;3.89;72.51
11099;BME280;12223;42.650;23.364;2024-02-23T04:25:12;94477.38;;;3.87;71.72
11099;BME280;12223;42.650;23.364;2024-02-23T04:27:37;94459.63;;;3.98;71.43
11099;BME280;12223;42.650;23.364;2024-02-23T04:30:03;94463.88;;;4.04;71.46
11099;BME280;12223;42.650;23.364;2024-02-23T04:32:29;94485.56;;;3.95;71.52
11099;BME280;12223;42.650;23.364;2024-02-23T04:34:55;94482.78;;;4.03;72.24
11099;BME280;12223;42.650;23.364;2024-02-23T04:37:21;94482.53;;;3.73;72.51
11099;BME280;12223;42.650;23.364;2024-02-23T04:39:46;94481.78;;;3.73;72.35
11099;BME280;12223;42.650;23.364;2024-02-23T04:42:11;94471.75;;;3.71;72.20
11099;BME280;12223;42.650;23.364;2024-02-23T04:44:37;94483.31;;;3.80;71.67
11099;BME280;12223;42.650;23.364;2024-02-23T04:47:02;94489.69;;;3.65;72.76
11099;BME280;12223;42.650;23.364;2024-02-23T04:49:28;94495.47;;;3.47;72.74
11099;BME280;12223;42.650;23.364;2024-02-23T04:51:53;94472.78;;;3.64;72.56
11099;BME280;12223;42.650;23.364;2024-02-23T04:54:19;94478.13;;;3.56;73.22
11099;BME280;12223;42.650;23.364;2024-02-23T04:56:45;94490.88;;;3.11;73.81
11099;BME280;12223;42.650;23.364;2024-02-23T04:59:10;94488.22;;;3.37;73.17
11099;BME280;12223;42.650;23.364;2024-02-23T05:01:36;94475.59;;;3.56;74.28
11099;BME280;12223;42.650;23.364;2024-02-23T05:04:02;94484.13;;;3.36;73.90
11099;BME280;12223;42.650;23.364;2024-02-23T05:06:29;94484.66;;;3.45;74.21
11099;BME280;12223;42.650;23.364;2024-02-23T05:08:54;94481.13;;;3.46;72.91
11099;BME280;12223;42.650;23.364;2024-02-23T05:11:20;94500.88;;;3.19;73.72
11099;BME280;12223;42.650;23.364;2024-02-23T05:13:45;94491.53;;;2.87;75.09
11099;BME280;12223;42.650;23.364;2024-02-23T05:16:10;94498.75;;;2.96;75.68
11099;BME280;12223;42.650;23.364;2024-02-23T05:18:38;94494.56;;;3.28;75.41
11099;BME280;12223;42.650;23.364;2024-02-23T05:21:03;94496.22;;;3.54;73.77
11099;BME280;12223;42.650;23.364;2024-02-23T05:23:29;94507.59;;;3.58;73.99
11099;BME280;12223;42.650;23.364;2024-02-23T05:25:54;94519.56;;;3.58;73.45
11099;BME280;12223;42.650;23.364;2024-02-23T05:28:20;94512.13;;;3.56;73.32
11099;BME280;12223;42.650;23.364;2024-02-23T05:30:48;94509.06;;;3.41;73.29
11099;BME280;12223;42.650;23.364;2024-02-23T05:33:13;94508.19;;;3.54;72.47
11099;BME280;12223;42.650;23.364;2024-02-23T05:35:39;94514.00;;;4.37;70.05
11099;BME280;12223;42.650;23.364;2024-02-23T05:38:04;94511.88;;;6.04;63.27
11099;BME280;12223;42.650;23.364;2024-02-23T05:40:31;94502.81;;;6.31;63.51
11099;BME280;12223;42.650;23.364;2024-02-23T05:42:58;94510.16;;;7.33;57.76
11099;BME280;12223;42.650;23.364;2024-02-23T05:45:23;94517.56;;;8.54;54.88
11099;BME280;12223;42.650;23.364;2024-02-23T05:47:49;94516.16;;;9.78;51.26
11099;BME280;12223;42.650;23.364;2024-02-23T05:50:14;94521.78;;;10.51;48.68
11099;BME280;12223;42.650;23.364;2024-02-23T05:52:40;94532.78;;;11.05;47.11
11099;BME280;12223;42.650;23.364;2024-02-23T05:55:05;94534.09;;;12.07;44.92
11099;BME280;12223;42.650;23.364;2024-02-23T05:57:31;94527.97;;;12.48;42.43
11099;BME280;12223;42.650;23.364;2024-02-23T05:59:56;94530.56;;;14.03;39.33
11099;BME280;12223;42.650;23.364;2024-02-23T06:02:22;94530.13;;;14.30;38.02
11099;BME280;12223;42.650;23.364;2024-02-23T06:04:48;94541.81;;;14.33;38.82
11099;BME280;12223;42.650;23.364;2024-02-23T06:07:14;94538.00;;;14.15;38.24
11099;BME280;12223;42.650;23.364;2024-02-23T06:09:43;94536.03;;;14.85;38.02
11099;BME280;12223;42.650;23.364;2024-02-23T06:12:08;94545.22;;;14.28;38.02
11099;BME280;12223;42.650;23.364;2024-02-23T06:14:34;94551.44;;;14.37;38.52
11099;BME280;12223;42.650;23.364;2024-02-23T06:17:00;94557.41;;;16.35;35.35
11099;BME280;12223;42.650;23.364;2024-02-23T06:19:25;94539.75;;;18.65;30.88
11099;BME280;12223;42.650;23.364;2024-02-23T06:21:51;94554.44;;;18.89;29.55
11099;BME280;12223;42.650;23.364;2024-02-23T06:24:16;94566.97;;;19.45;29.17
11099;BME280;12223;42.650;23.364;2024-02-23T06:26:42;94554.09;;;20.62;28.00
11099;BME280;12223;42.650;23.364;2024-02-23T06:29:07;94538.78;;;20.64;25.75
11099;BME280;12223;42.650;23.364;2024-02-23T06:31:36;94563.06;;;18.53;29.06
11099;BME280;12223;42.650;23.364;2024-02-23T06:34:04;94565.44;;;17.59;31.64
11099;BME280;12223;42.650;23.364;2024-02-23T06:36:29;94561.75;;;17.88;30.97
11099;BME280;12223;42.650;23.364;2024-02-23T06:38:55;94555.56;;;17.70;30.60
11099;BME280;12223;42.650;23.364;2024-02-23T06:41:20;94550.84;;;18.62;29.98
11099;BME280;12223;42.650;23.364;2024-02-23T06:43:46;94559.63;;;21.84;24.91
11099;BME280;12223;42.650;23.364;2024-02-23T06:46:11;94552.50;;;23.06;23.10
11099;BME280;12223;42.650;23.364;2024-02-23T06:48:38;94555.09;;;23.47;23.19
11099;BME280;12223;42.650;23.364;2024-02-23T06:51:05;94564.53;;;23.48;22.31
11099;BME280;12223;42.650;23.364;2024-02-23T06:53:30;94557.34;;;21.74;25.23
11099;BME280;12223;42.650;23.364;2024-02-23T06:55:56;94552.53;;;23.96;22.17
11099;BME280;12223;42.650;23.364;2024-02-23T06:58:21;94553.53;;;22.51;24.83
11099;BME280;12223;42.650;23.364;2024-02-23T07:00:47;94557.00;;;23.71;22.38
11099;BME280;12223;42.650;23.364;2024-02-23T07:03:13;94561.84;;;22.62;23.41
11099;BME280;12223;42.650;23.364;2024-02-23T07:05:40;94553.34;;;25.13;20.34
11099;BME280;12223;42.650;23.364;2024-02-23T07:08:07;94550.50;;;25.06;20.65
11099;BME280;12223;42.650;23.364;2024-02-23T07:10:32;94566.03;;;23.82;21.97
11099;BME280;12223;42.650;23.364;2024-02-23T07:12:58;94567.94;;;21.48;24.69
11099;BME280;12223;42.650;23.364;2024-02-23T07:15:23;94568.78;;;16.81;31.71
11099;BME280;12223;42.650;23.364;2024-02-23T07:17:49;94553.78;;;20.98;25.39
11099;BME280;12223;42.650;23.364;2024-02-23T07:20:15;94542.94;;;20.39;26.91
11099;BME280;12223;42.650;23.364;2024-02-23T07:22:44;94543.91;;;19.56;27.40
11099;BME280;12223;42.650;23.364;2024-02-23T07:25:10;94554.72;;;20.02;26.80
11099;BME280;12223;42.650;23.364;2024-02-23T07:27:35;94547.63;;;18.16;30.32
11099;BME280;12223;42.650;23.364;2024-02-23T07:30:00;94554.59;;;17.79;30.71
11099;BME280;12223;42.650;23.364;2024-02-23T07:32:26;94545.84;;;14.93;35.88
11099;BME280;12223;42.650;23.364;2024-02-23T07:34:52;94542.22;;;14.60;37.39
11099;BME280;12223;42.650;23.364;2024-02-23T07:37:18;94543.84;;;11.79;43.31
11099;BME280;12223;42.650;23.364;2024-02-23T07:39:43;94528.75;;;11.71;43.92
11099;BME280;12223;42.650;23.364;2024-02-23T07:42:08;94531.34;;;10.50;47.53
11099;BME280;12223;42.650;23.364;2024-02-23T07:44:36;94547.22;;;10.37;49.54
11099;BME280;12223;42.650;23.364;2024-02-23T07:47:02;94544.75;;;10.79;46.99
11099;BME280;12223;42.650;23.364;2024-02-23T07:49:28;94545.00;;;10.46;49.62
11099;BME280;12223;42.650;23.364;2024-02-23T07:51:54;94558.78;;;10.56;50.16
11099;BME280;12223;42.650;23.364;2024-02-23T07:54:19;94560.91;;;9.89;51.96
11099;BME280;12223;42.650;23.364;2024-02-23T07:56:45;94537.56;;;9.79;51.98
11099;BME280;12223;42.650;23.364;2024-02-23T07:59:10;94552.44;;;9.72;52.61
11099;BME280;12223;42.650;23.364;2024-02-23T08:01:36;94549.38;;;10.18;52.45
11099;BME280;12223;42.650;23.364;2024-02-23T08:04:01;94534.53;;;10.31;53.21
11099;BME280;12223;42.650;23.364;2024-02-23T08:06:28;94531.91;;;10.26;51.63
11099;BME280;12223;42.650;23.364;2024-02-23T08:08:54;94541.13;;;10.21;51.54
11099;BME280;12223;42.650;23.364;2024-02-23T08:11:20;94545.53;;;9.99;54.18
11099;BME280;12223;42.650;23.364;2024-02-23T08:13:46;94525.22;;;10.08;53.53
11099;BME280;12223;42.650;23.364;2024-02-23T08:16:11;94529.56;;;10.02;52.23
11099;BME280;12223;42.650;23.364;2024-02-23T08:18:36;94519.19;;;9.75;54.88
11099;BME280;12223;42.650;23.364;2024-02-23T08:21:02;94522.16;;;9.84;54.07
11099;BME280;12223;42.650;23.364;2024-02-23T08:23:28;94549.13;;;9.98;53.48
11099;BME280;12223;42.650;23.364;2024-02-23T08:25:55;94527.25;;;10.28;54.41
11099;BME280;12223;42.650;23.364;2024-02-23T08:28:22;94534.59;;;10.36;52.57
11099;BME280;12223;42.650;23.364;2024-02-23T08:30:48;94533.38;;;10.48;52.08
11099;BME280;12223;42.650;23.364;2024-02-23T08:33:15;94536.75;;;10.00;54.09
11099;BME280;12223;42.650;23.364;2024-02-23T08:35:40;94537.75;;;9.94;55.78
11099;BME280;12223;42.650;23.364;2024-02-23T08:38:06;94551.56;;;9.83;54.70
11099;BME280;12223;42.650;23.364;2024-02-23T08:40:34;94531.00;;;10.15;54.63
11099;BME280;12223;42.650;23.364;2024-02-23T08:43:00;94530.75;;;10.16;52.92
11099;BME280;12223;42.650;23.364;2024-02-23T08:45:25;94530.75;;;10.16;53.88
11099;BME280;12223;42.650;23.364;2024-02-23T08:47:51;94540.44;;;10.31;52.37
11099;BME280;12223;42.650;23.364;2024-02-23T08:50:16;94534.63;;;10.41;52.30
11099;BME280;12223;42.650;23.364;2024-02-23T08:52:41;94532.69;;;10.58;52.60
11099;BME280;12223;42.650;23.364;2024-02-23T08:55:07;94536.22;;;10.79;52.03
11099;BME280;12223;42.650;23.364;2024-02-23T08:57:33;94541.09;;;11.07;50.68
11099;BME280;12223;42.650;23.364;2024-02-23T08:59:58;94535.38;;;11.05;52.53
11099;BME280;12223;42.650;23.364;2024-02-23T09:02:24;94529.31;;;10.89;51.71
11099;BME280;12223;42.650;23.364;2024-02-23T09:04:49;94536.28;;;11.26;51.03
11099;BME280;12223;42.650;23.364;2024-02-23T09:07:15;94539.72;;;11.41;49.80
11099;BME280;12223;42.650;23.364;2024-02-23T09:09:40;94526.78;;;11.41;48.67
11099;BME280;12223;42.650;23.364;2024-02-23T09:12:06;94532.91;;;11.25;48.71
11099;BME280;12223;42.650;23.364;2024-02-23T09:14:50;94530.16;;;11.42;48.19
11099;BME280;12223;42.650;23.364;2024-02-23T09:17:16;94526.75;;;11.31;49.18
11099;BME280;12223;42.650;23.364;2024-02-23T09:19:41;94529.88;;;11.33;47.50
11099;BME280;12223;42.650;23.364;2024-02-23T09:22:06;94527.66;;;11.10;48.96
11099;BME280;12223;42.650;23.364;2024-02-23T09:24:32;94534.06;;;11.39;47.94
11099;BME280;12223;42.650;23.364;2024-02-23T09:26:57;94537.00;;;11.63;47.61
11099;BME280;12223;42.650;23.364;2024-02-23T09:29:23;94530.25;;;11.57;48.74
11099;BME280;12223;42.650;23.364;2024-02-23T09:31:48;94529.06;;;11.75;46.79
11099;BME280;12223;42.650;23.364;2024-02-23T09:34:14;94523.16;;;11.89;46.04
11099;BME280;12223;42.650;23.364;2024-02-23T09:36:39;94516.91;;;11.75;47.49
11099;BME280;12223;42.650;23.364;2024-02-23T09:39:05;94523.41;;;11.93;44.96
11099;BME280;12223;42.650;23.364;2024-02-23T09:41:31;94542.81;;;11.80;45.67
11099;BME280;12223;42.650;23.364;2024-02-23T09:44:01;94530.69;;;11.91;46.59
11099;BME280;12223;42.650;23.364;2024-02-23T09:46:27;94519.56;;;12.01;45.43
11099;BME280;12223;42.650;23.364;2024-02-23T09:48:53;94517.47;;;11.98;45.75
11099;BME280;12223;42.650;23.364;2024-02-23T09:51:20;94520.19;;;12.43;44.58
11099;BME280;12223;42.650;23.364;2024-02-23T09:53:49;94523.81;;;12.72;44.14
11099;BME280;12223;42.650;23.364;2024-02-23T09:56:15;94520.19;;;12.94;42.62
11099;BME280;12223;42.650;23.364;2024-02-23T09:58:43;94518.63;;;12.98;42.44
11099;BME280;12223;42.650;23.364;2024-02-23T10:01:10;94510.84;;;13.13;43.18
11099;BME280;12223;42.650;23.364;2024-02-23T10:03:37;94519.13;;;13.30;41.41
11099;BME280;12223;42.650;23.364;2024-02-23T10:06:04;94498.59;;;13.34;41.01
11099;BME280;12223;42.650;23.364;2024-02-23T10:08:30;94508.25;;;13.13;41.59
11099;BME280;12223;42.650;23.364;2024-02-23T10:10:55;94504.59;;;13.29;42.20
11099;BME280;12223;42.650;23.364;2024-02-23T10:13:24;94501.91;;;13.54;40.79
11099;BME280;12223;42.650;23.364;2024-02-23T10:15:50;94488.50;;;13.07;41.08
11099;BME280;12223;42.650;23.364;2024-02-23T10:18:16;94484.13;;;13.12;40.88
11099;BME280;12223;42.650;23.364;2024-02-23T10:20:42;94497.28;;;13.46;41.03
11099;BME280;12223;42.650;23.364;2024-02-23T10:23:08;94493.13;;;13.45;40.25
11099;BME280;12223;42.650;23.364;2024-02-23T10:25:35;94482.66;;;13.66;41.01
11099;BME280;12223;42.650;23.364;2024-02-23T10:28:05;94482.53;;;13.91;39.81
11099;BME280;12223;42.650;23.364;2024-02-23T10:30:31;94481.31;;;13.83;40.00
11099;BME280;12223;42.650;23.364;2024-02-23T10:32:57;94483.44;;;13.66;39.71
11099;BME280;12223;42.650;23.364;2024-02-23T10:35:24;94470.09;;;13.88;39.04
11099;BME280;12223;42.650;23.364;2024-02-23T10:37:50;94469.44;;;14.11;38.81
11099;BME280;12223;42.650;23.364;2024-02-23T10:40:16;94469.63;;;14.20;38.37
11099;BME280;12223;42.650;23.364;2024-02-23T10:42:47;94467.09;;;14.54;37.08
11099;BME280;12223;42.650;23.364;2024-02-23T10:45:20;94470.66;;;14.97;35.89
11099;BME280;12223;42.650;23.364;2024-02-23T10:47:50;94455.50;;;15.27;35.91
11099;BME280;12223;42.650;23.364;2024-02-23T10:50:17;94456.09;;;15.43;35.22
11099;BME280;12223;42.650;23.364;2024-02-23T10:52:45;94463.09;;;15.48;35.67
11099;BME280;12223;42.650;23.364;2024-02-23T10:55:12;94450.00;;;15.05;36.08
11099;BME280;12223;42.650;23.364;2024-02-23T10:57:38;94447.84;;;15.12;36.57
11099;BME280;12223;42.650;23.364;2024-02-23T11:00:05;94450.50;;;15.55;35.95
11099;BME280;12223;42.650;23.364;2024-02-23T11:02:49;94439.19;;;15.41;34.70
11099;BME280;12223;42.650;23.364;2024-02-23T11:05:15;94431.69;;;15.63;33.73
11099;BME280;12223;42.650;23.364;2024-02-23T11:07:41;94430.00;;;15.72;34.14
11099;BME280;12223;42.650;23.364;2024-02-23T11:10:07;94430.41;;;15.60;33.71
11099;BME280;12223;42.650;23.364;2024-02-23T11:12:35;94428.38;;;15.76;33.11
11099;BME280;12223;42.650;23.364;2024-02-23T11:15:01;94417.31;;;15.65;33.88
11099;BME280;12223;42.650;23.364;2024-02-23T11:17:28;94414.78;;;15.60;34.01
11099;BME280;12223;42.650;23.364;2024-02-23T11:19:55;94420.69;;;15.18;34.22
11099;BME280;12223;42.650;23.364;2024-02-23T11:22:31;94424.59;;;14.97;34.36
11099;BME280;12223;42.650;23.364;2024-02-23T11:25:05;94416.44;;;14.80;34.45
11099;BME280;12223;42.650;23.364;2024-02-23T11:27:32;94409.03;;;14.92;35.18
11099;BME280;12223;42.650;23.364;2024-02-23T11:30:06;94405.56;;;15.02;34.65
11099;BME280;12223;42.650;23.364;2024-02-23T11:32:40;94401.34;;;15.06;35.15
11099;BME280;12223;42.650;23.364;2024-02-23T11:35:07;94401.13;;;15.02;35.21
11099;BME280;12223;42.650;23.364;2024-02-23T11:37:33;94397.56;;;14.93;35.95
11099;BME280;12223;42.650;23.364;2024-02-23T11:40:00;94400.72;;;14.90;35.11
11099;BME280;12223;42.650;23.364;2024-02-23T11:42:27;94409.34;;;14.85;34.01
11099;BME280;12223;42.650;23.364;2024-02-23T11:44:53;94408.13;;;14.78;34.45
11099;BME280;12223;42.650;23.364;2024-02-23T11:47:19;94392.13;;;14.89;34.97
11099;BME280;12223;42.650;23.364;2024-02-23T11:49:44;94401.88;;;15.03;34.34
11099;BME280;12223;42.650;23.364;2024-02-23T11:52:10;94404.31;;;14.94;34.14
11099;BME280;12223;42.650;23.364;2024-02-23T11:54:35;94394.00;;;15.08;34.43
11099;BME280;12223;42.650;23.364;2024-02-23T11:57:01;94380.63;;;15.19;33.84
11099;BME280;12223;42.650;23.364;2024-02-23T11:59:27;94392.38;;;15.17;33.80
11099;BME280;12223;42.650;23.364;2024-02-23T12:01:52;94395.13;;;15.25;33.87
11099;BME280;12223;42.650;23.364;2024-02-23T12:04:17;94386.81;;;15.23;34.67
11099;BME280;12223;42.650;23.364;2024-02-23T12:06:43;94377.53;;;15.17;34.06
11099;BME280;12223;42.650;23.364;2024-02-23T12:09:09;94376.56;;;15.08;34.09
11099;BME280;12223;42.650;23.364;2024-02-23T12:11:35;94374.94;;;15.17;33.70
11099;BME280;12223;42.650;23.364;2024-02-23T12:14:01;94370.13;;;15.06;33.81
11099;BME280;12223;42.650;23.364;2024-02-23T12:16:33;94376.09;;;15.06;35.23
11099;BME280;12223;42.650;23.364;2024-02-23T12:19:00;94367.59;;;15.19;34.87
11099;BME280;12223;42.650;23.364;2024-02-23T12:21:26;94360.94;;;14.89;34.95
11099;BME280;12223;42.650;23.364;2024-02-23T12:23:51;94365.13;;;15.09;32.61
11099;BME280;12223;42.650;23.364;2024-02-23T12:26:18;94364.59;;;15.12;32.77
11099;BME280;12223;42.650;23.364;2024-02-23T12:28:44;94367.19;;;15.12;34.51
11099;BME280;12223;42.650;23.364;2024-02-23T12:31:11;94362.63;;;15.23;33.03
11099;BME280;12223;42.650;23.364;2024-02-23T12:33:38;94363.13;;;15.25;34.43
11099;BME280;12223;42.650;23.364;2024-02-23T12:36:07;94358.69;;;15.25;33.61
11099;BME280;12223;42.650;23.364;2024-02-23T12:38:33;94351.16;;;15.24;33.65
11099;BME280;12223;42.650;23.364;2024-02-23T12:41:00;94348.84;;;15.22;33.10
11099;BME280;12223;42.650;23.364;2024-02-23T12:43:25;94331.09;;;15.24;32.43
11099;BME280;12223;42.650;23.364;2024-02-23T12:45:55;94337.53;;;15.32;32.66
11099;BME280;12223;42.650;23.364;2024-02-23T12:48:21;94335.97;;;15.31;31.82